createdAt,value
2023-03-13T00:01:45.901Z,33.90
2023-03-13T00:04:14.111Z,38.00
2023-03-13T00:06:42.769Z,30.30
2023-03-13T00:09:12.968Z,30.50
2023-03-13T00:11:41.505Z,26.00
2023-03-13T00:14:10.180Z,31.40
2023-03-13T00:16:39.705Z,29.00
2023-03-13T00:19:08.939Z,25.80
2023-03-13T00:21:41.465Z,24.20
2023-03-13T00:24:12.398Z,25.50
2023-03-13T00:26:40.534Z,25.50
2023-03-13T00:29:08.402Z,27.30
2023-03-13T00:31:37.156Z,19.40
2023-03-13T00:34:05.136Z,19.00
2023-03-13T00:36:35.501Z,20.00
2023-03-13T00:39:05.727Z,21.20
2023-03-13T00:41:37.485Z,22.80
2023-03-13T00:44:06.936Z,24.50
2023-03-13T00:46:35.757Z,27.00
2023-03-13T00:49:04.061Z,26.30
2023-03-13T00:51:34.904Z,23.90
2023-03-13T00:54:04.188Z,27.50
2023-03-13T00:56:32.184Z,26.80
2023-03-13T00:59:01.494Z,27.90
2023-03-13T01:01:32.541Z,25.20
2023-03-13T01:04:07.384Z,21.30
2023-03-13T01:06:38.299Z,18.00
2023-03-13T01:09:07.842Z,23.70
2023-03-13T01:11:38.639Z,21.60
2023-03-13T01:14:14.658Z,23.00
2023-03-13T01:16:43.194Z,17.40
2023-03-13T01:19:13.900Z,21.80
2023-03-13T01:24:11.207Z,19.00
2023-03-13T01:26:39.504Z,20.00
2023-03-13T01:29:07.617Z,21.60
2023-03-13T01:31:37.418Z,20.90
2023-03-13T01:34:10.056Z,16.70
2023-03-13T01:36:38.559Z,21.80
2023-03-13T01:39:06.800Z,22.00
2023-03-13T01:41:35.091Z,29.90
2023-03-13T01:44:03.993Z,15.50
2023-03-13T01:46:38.527Z,15.80
2023-03-13T01:49:23.777Z,14.00
2023-03-13T01:52:23.457Z,14.00
2023-03-13T01:54:58.948Z,14.50
2023-03-13T01:57:33.579Z,10.10
2023-03-13T02:00:08.440Z,9.70
2023-03-13T02:05:31.841Z,12.50
2023-03-13T02:08:07.041Z,13.30
2023-03-13T02:10:42.228Z,10.90
2023-03-13T02:13:15.229Z,11.20
2023-03-13T02:15:44.232Z,12.20
2023-03-13T02:18:13.729Z,9.10
2023-03-13T02:20:42.111Z,8.10
2023-03-13T02:23:30.872Z,6.90
2023-03-13T02:25:59.465Z,5.70
2023-03-13T02:28:39.408Z,9.50
2023-03-13T02:31:11.104Z,6.60
2023-03-13T02:33:42.401Z,5.30
2023-03-13T02:36:15.007Z,9.10
2023-03-13T02:38:52.199Z,7.50
2023-03-13T02:41:22.303Z,5.50
2023-03-13T02:43:52.140Z,5.80
2023-03-13T02:46:21.107Z,5.60
2023-03-13T02:48:55.416Z,5.50
2023-03-13T02:51:33.599Z,6.80
2023-03-13T02:54:06.851Z,10.10
2023-03-13T02:56:38.475Z,5.20
2023-03-13T02:59:07.790Z,7.10
2023-03-13T03:01:36.703Z,5.90
2023-03-13T03:04:04.944Z,7.00
2023-03-13T03:06:33.116Z,7.50
2023-03-13T03:09:04.302Z,5.40
2023-03-13T03:11:34.270Z,5.50
2023-03-13T03:14:05.927Z,5.50
2023-03-13T03:16:38.518Z,6.40
2023-03-13T03:19:07.392Z,5.60
2023-03-13T03:21:35.856Z,5.50
2023-03-13T03:24:04.577Z,5.70
2023-03-13T03:26:32.854Z,5.50
2023-03-13T03:29:01.231Z,7.90
2023-03-13T03:31:31.246Z,6.80
2023-03-13T03:33:59.272Z,5.40
2023-03-13T03:36:27.501Z,6.40
2023-03-13T03:38:55.704Z,10.50
2023-03-13T03:43:54.543Z,6.70
2023-03-13T03:46:24.912Z,8.20
2023-03-13T03:48:52.923Z,7.60
2023-03-13T03:51:22.662Z,7.50
2023-03-13T03:53:51.062Z,7.00
2023-03-13T03:56:19.162Z,6.00
2023-03-13T03:58:50.696Z,7.50
2023-03-13T04:01:32.394Z,8.00
2023-03-13T04:04:00.688Z,7.80
2023-03-13T04:06:28.841Z,7.10
2023-03-13T04:08:57.168Z,7.00
2023-03-13T04:11:27.610Z,6.10
2023-03-13T04:13:56.558Z,5.90
2023-03-13T04:16:24.895Z,5.50
2023-03-13T04:18:55.157Z,5.80
2023-03-13T04:21:26.235Z,10.10
2023-03-13T04:24:00.175Z,6.90
2023-03-13T04:26:29.031Z,6.10
2023-03-13T04:28:58.983Z,5.60
2023-03-13T04:31:45.393Z,5.00
2023-03-13T04:34:36.524Z,8.10
2023-03-13T04:37:26.178Z,4.70
2023-03-13T04:40:13.672Z,5.80
2023-03-13T04:43:04.731Z,4.70
2023-03-13T04:45:58.985Z,12.00
2023-03-13T04:48:47.174Z,4.40
2023-03-13T04:51:32.510Z,6.20
2023-03-13T04:54:15.804Z,10.30
2023-03-13T04:57:19.040Z,7.70
2023-03-13T04:59:54.978Z,9.70
2023-03-13T05:02:23.174Z,10.80
2023-03-13T05:05:23.799Z,14.10
2023-03-13T05:07:51.766Z,7.40
2023-03-13T05:10:47.357Z,8.10
2023-03-13T05:13:50.336Z,13.50
2023-03-13T05:16:38.528Z,9.80
2023-03-13T05:19:12.169Z,9.00
2023-03-13T05:22:07.100Z,12.10
2023-03-13T05:24:50.498Z,9.60
2023-03-13T05:27:32.054Z,13.80
2023-03-13T05:30:19.335Z,14.80
2023-03-13T05:33:07.972Z,9.60
2023-03-13T05:35:50.333Z,9.30
2023-03-13T05:38:29.534Z,8.90
2023-03-13T05:41:09.216Z,11.30
2023-03-13T05:43:55.557Z,18.50
2023-03-13T05:46:29.246Z,12.30
2023-03-13T05:49:18.318Z,10.70
2023-03-13T05:52:05.913Z,19.70
2023-03-13T05:54:52.939Z,15.60
2023-03-13T05:57:39.746Z,24.50
2023-03-13T06:00:22.489Z,17.40
2023-03-13T06:03:00.205Z,15.60
2023-03-13T06:05:35.380Z,7.10
2023-03-13T06:08:07.526Z,8.80
2023-03-13T06:10:35.586Z,5.20
2023-03-13T06:13:18.686Z,15.10
2023-03-13T06:15:53.428Z,3.60
2023-03-13T06:18:39.140Z,5.60
2023-03-13T06:21:07.244Z,5.40
2023-03-13T06:23:36.056Z,4.30
2023-03-13T06:26:04.039Z,19.50
2023-03-13T06:28:32.934Z,12.10
2023-03-13T06:31:05.705Z,4.80
2023-03-13T06:33:34.464Z,6.50
2023-03-13T06:36:03.094Z,6.80
2023-03-13T06:38:31.239Z,9.30
2023-03-13T06:40:59.483Z,6.90
2023-03-13T06:43:27.971Z,20.70
2023-03-13T06:45:56.160Z,10.80
2023-03-13T06:48:24.629Z,4.20
2023-03-13T06:50:52.752Z,5.00
2023-03-13T06:53:21.216Z,4.30
2023-03-13T06:55:49.535Z,6.30
2023-03-13T06:58:30.917Z,9.10
2023-03-13T07:01:08.822Z,5.10
2023-03-13T07:03:37.791Z,4.00
2023-03-13T07:06:06.080Z,3.40
2023-03-13T07:08:35.541Z,4.30
2023-03-13T07:11:09.583Z,3.90
2023-03-13T07:13:38.223Z,3.40
2023-03-13T07:16:09.358Z,3.30
2023-03-13T07:18:39.674Z,6.10
2023-03-13T07:21:09.566Z,5.10
2023-03-13T07:23:37.511Z,3.70
2023-03-13T07:26:08.710Z,4.70
2023-03-13T07:28:38.020Z,6.90
2023-03-13T07:31:12.494Z,3.90
2023-03-13T07:33:41.172Z,7.70
2023-03-13T07:36:10.666Z,7.20
2023-03-13T07:38:39.132Z,5.00
2023-03-13T07:41:07.148Z,4.60
2023-03-13T07:43:35.024Z,4.00
2023-03-13T07:46:08.180Z,4.80
2023-03-13T07:48:38.884Z,3.40
2023-03-13T07:51:11.132Z,13.00
2023-03-13T07:53:39.106Z,3.10
2023-03-13T07:56:11.471Z,5.20
2023-03-13T07:58:41.049Z,4.40
2023-03-13T08:01:24.450Z,3.70
2023-03-13T08:03:55.905Z,3.70
2023-03-13T08:06:26.668Z,5.50
2023-03-13T08:11:27.171Z,3.70
2023-03-13T08:13:56.523Z,7.20
2023-03-13T08:16:30.400Z,4.70
2023-03-13T08:18:59.986Z,5.60
2023-03-13T08:21:30.217Z,4.60
2023-03-13T08:24:06.049Z,4.10
2023-03-13T08:26:36.684Z,3.10
2023-03-13T08:31:42.426Z,3.60
2023-03-13T08:34:12.678Z,5.80
2023-03-13T08:36:41.296Z,4.30
2023-03-13T08:39:15.737Z,4.50
2023-03-13T08:41:44.025Z,3.30
2023-03-13T08:44:15.292Z,4.70
2023-03-13T08:46:44.397Z,3.70
2023-03-13T08:49:13.478Z,3.80
2023-03-13T08:51:41.522Z,3.50
2023-03-13T08:54:10.332Z,3.40
2023-03-13T08:56:38.312Z,3.80
2023-03-13T08:59:06.311Z,3.80
2023-03-13T09:01:35.980Z,3.60
2023-03-13T09:04:05.370Z,6.60
2023-03-13T09:06:38.693Z,5.10
2023-03-13T09:09:07.798Z,4.10
2023-03-13T09:11:38.073Z,9.30
2023-03-13T09:14:07.070Z,3.80
2023-03-13T09:16:36.052Z,4.00
2023-03-13T09:19:04.561Z,3.60
2023-03-13T09:21:34.666Z,2.70
2023-03-13T09:24:03.521Z,5.90
2023-03-13T09:26:31.518Z,3.10
2023-03-13T09:28:59.866Z,3.70
2023-03-13T09:31:32.683Z,6.20
2023-03-13T09:34:02.166Z,3.00
2023-03-13T09:36:30.683Z,3.80
2023-03-13T09:39:00.384Z,10.30
2023-03-13T09:41:34.604Z,4.00
2023-03-13T09:44:06.246Z,3.80
2023-03-13T09:46:51.712Z,3.10
2023-03-13T09:49:32.515Z,3.60
2023-03-13T09:52:11.132Z,3.60
2023-03-13T09:54:44.007Z,2.60
2023-03-13T09:57:33.705Z,2.20
2023-03-13T10:00:13.754Z,3.00
2023-03-13T10:02:47.997Z,2.40
2023-03-13T10:05:25.192Z,3.50
2023-03-13T10:08:09.140Z,3.80
2023-03-13T10:10:46.268Z,2.50
2023-03-13T10:13:27.097Z,3.30
2023-03-13T10:16:20.732Z,3.30
2023-03-13T10:18:55.457Z,2.80
2023-03-13T10:21:26.768Z,2.90
2023-03-13T10:24:03.201Z,3.00
2023-03-13T10:26:37.065Z,8.00
2023-03-13T10:29:29.190Z,2.90
2023-03-13T10:32:06.335Z,2.80
2023-03-13T10:34:52.798Z,3.00
2023-03-13T10:37:25.230Z,2.40
2023-03-13T10:39:53.592Z,2.00
2023-03-13T10:42:33.488Z,2.20
2023-03-13T10:45:05.312Z,6.20
2023-03-13T10:47:34.937Z,2.10
2023-03-13T10:50:04.529Z,2.10
2023-03-13T10:52:32.683Z,3.40
2023-03-13T10:55:06.928Z,3.80
2023-03-13T10:57:36.877Z,2.20
2023-03-13T11:00:33.040Z,4.40
2023-03-13T11:03:05.350Z,3.60
2023-03-13T11:05:43.657Z,2.10
2023-03-13T11:08:36.523Z,7.60
2023-03-13T11:11:16.735Z,2.50
2023-03-13T11:13:44.877Z,2.40
2023-03-13T11:16:15.918Z,4.60
2023-03-13T11:19:25.703Z,2.50
2023-03-13T11:22:13.204Z,2.50
2023-03-13T11:25:11.120Z,2.70
2023-03-13T11:27:44.261Z,5.70
2023-03-13T11:30:50.382Z,3.00
2023-03-13T11:33:40.801Z,2.50
2023-03-13T11:36:37.015Z,2.30
2023-03-13T11:39:29.883Z,3.30
2023-03-13T11:42:13.418Z,2.40
2023-03-13T11:45:13.895Z,2.80
2023-03-13T11:47:54.051Z,3.10
2023-03-13T11:50:42.896Z,2.50
2023-03-13T11:53:28.855Z,2.60
2023-03-13T11:56:21.906Z,3.10
2023-03-13T11:59:04.893Z,2.50
2023-03-13T12:01:38.716Z,6.40
2023-03-13T12:04:22.294Z,4.10
2023-03-13T12:06:56.576Z,2.50
2023-03-13T12:09:26.132Z,4.80
2023-03-13T12:12:04.538Z,2.90
2023-03-13T12:14:45.390Z,3.30
2023-03-13T12:17:21.763Z,3.30
2023-03-13T12:19:59.093Z,3.30
2023-03-13T12:22:42.837Z,3.50
2023-03-13T12:25:21.592Z,3.30
2023-03-13T12:27:58.672Z,4.10
2023-03-13T12:30:48.271Z,4.30
2023-03-13T12:33:37.997Z,2.60
2023-03-13T12:36:18.956Z,3.30
2023-03-13T12:39:10.156Z,5.60
2023-03-13T12:41:43.660Z,5.00
2023-03-13T12:44:18.293Z,3.10
2023-03-13T12:46:51.256Z,3.70
2023-03-13T12:49:28.220Z,5.00
2023-03-13T12:52:24.040Z,4.10
2023-03-13T12:55:23.785Z,3.00
2023-03-13T12:57:54.781Z,3.00
2023-03-13T13:00:26.949Z,4.00
2023-03-13T13:03:26.211Z,3.70
2023-03-13T13:06:14.009Z,2.70
2023-03-13T13:08:47.060Z,2.60
2023-03-13T13:11:33.489Z,2.60
2023-03-13T13:14:03.108Z,2.70
2023-03-13T13:16:32.054Z,3.30
2023-03-13T13:19:32.201Z,3.90
2023-03-13T13:22:36.859Z,4.40
2023-03-13T13:25:04.899Z,2.30
2023-03-13T13:27:33.074Z,4.30
2023-03-13T13:30:04.430Z,5.50
2023-03-13T13:32:36.613Z,3.90
2023-03-13T13:35:13.569Z,3.60
2023-03-13T13:37:42.830Z,7.50
2023-03-13T13:40:17.113Z,3.40
2023-03-13T13:42:54.510Z,5.80
2023-03-13T13:45:30.026Z,2.00
2023-03-13T13:48:28.403Z,6.60
2023-03-13T13:51:11.549Z,6.40
2023-03-13T13:53:53.097Z,3.80
2023-03-13T13:56:49.775Z,2.50
2023-03-13T13:59:20.974Z,11.90
2023-03-13T14:02:11.111Z,4.70
2023-03-13T14:04:56.818Z,2.20
2023-03-13T14:07:54.228Z,2.50
2023-03-13T14:10:37.682Z,2.20
2023-03-13T14:13:22.472Z,3.90
2023-03-13T14:15:53.954Z,3.10
2023-03-13T14:18:27.988Z,4.30
2023-03-13T14:20:58.037Z,2.40
2023-03-13T14:23:46.721Z,7.70
2023-03-13T14:26:19.305Z,4.20
2023-03-13T14:28:50.178Z,3.00
2023-03-13T14:31:39.245Z,13.00
2023-03-13T14:34:11.705Z,4.00
2023-03-13T14:37:16.859Z,3.00
2023-03-13T14:39:46.510Z,5.10
2023-03-13T14:42:17.003Z,7.00
2023-03-13T14:47:32.600Z,2.70
2023-03-13T14:50:04.833Z,2.00
2023-03-13T14:52:33.279Z,2.50
2023-03-13T14:55:25.865Z,2.90
2023-03-13T14:57:59.658Z,2.90
2023-03-13T15:00:37.192Z,2.90
2023-03-13T15:03:17.305Z,3.90
2023-03-13T15:05:47.695Z,3.80
2023-03-13T15:10:44.340Z,3.20
2023-03-13T15:13:32.628Z,5.50
2023-03-13T15:16:01.579Z,2.10
2023-03-13T15:18:35.106Z,3.60
2023-03-13T15:21:16.852Z,7.70
2023-03-13T15:23:51.136Z,2.50
2023-03-13T15:26:19.500Z,4.90
2023-03-13T15:28:47.437Z,3.40
2023-03-13T15:31:16.086Z,7.50
2023-03-13T15:33:44.377Z,14.60
2023-03-13T15:36:12.421Z,2.20
2023-03-13T15:38:40.827Z,4.70
2023-03-13T15:41:09.387Z,9.00
2023-03-13T15:43:37.290Z,5.30
2023-03-13T15:46:11.055Z,3.10
2023-03-13T15:48:39.534Z,5.40
2023-03-13T15:51:14.477Z,2.80
2023-03-13T15:53:43.801Z,3.10
2023-03-13T15:56:15.844Z,2.70
2023-03-13T15:58:45.922Z,4.30
2023-03-13T16:01:16.092Z,3.80
2023-03-13T16:03:44.811Z,4.50
2023-03-13T16:06:21.440Z,3.60
2023-03-13T16:08:49.606Z,3.90
2023-03-13T16:11:17.694Z,3.60
2023-03-13T16:13:45.809Z,4.90
2023-03-13T16:16:24.864Z,4.60
2023-03-13T16:18:53.357Z,5.70
2023-03-13T16:21:26.035Z,4.30
2023-03-13T16:23:54.337Z,4.50
2023-03-13T16:26:25.354Z,6.10
2023-03-13T16:28:55.356Z,5.90
2023-03-13T16:31:29.424Z,5.80
2023-03-13T16:33:59.412Z,6.20
2023-03-13T16:36:31.202Z,11.80
2023-03-13T16:39:01.140Z,5.80
2023-03-13T16:41:29.560Z,6.50
2023-03-13T16:43:57.664Z,5.50
2023-03-13T16:46:32.926Z,4.80
2023-03-13T16:49:01.235Z,6.70
2023-03-13T16:51:29.253Z,10.80
2023-03-13T16:54:02.181Z,10.20
2023-03-13T16:56:37.809Z,5.50
2023-03-13T16:59:10.573Z,13.90
2023-03-13T17:01:38.858Z,11.60
2023-03-13T17:04:07.240Z,10.40
2023-03-13T17:06:42.537Z,28.40
2023-03-13T17:09:13.820Z,11.40
2023-03-13T17:11:43.303Z,5.30
2023-03-13T17:14:11.725Z,7.30
2023-03-13T17:16:44.207Z,5.00
2023-03-13T17:19:17.125Z,5.10
2023-03-13T17:21:45.245Z,6.70
2023-03-13T17:24:13.351Z,15.40
2023-03-13T17:26:42.129Z,8.20
2023-03-13T17:29:16.985Z,11.20
2023-03-13T17:31:45.255Z,10.40
2023-03-13T17:34:13.250Z,11.40
2023-03-13T17:36:41.535Z,9.00
2023-03-13T17:39:14.670Z,10.40
2023-03-13T17:41:43.722Z,9.70
2023-03-13T17:44:11.721Z,7.10
2023-03-13T17:46:43.301Z,14.00
2023-03-13T17:49:13.358Z,17.20
2023-03-13T17:51:42.250Z,12.30
2023-03-13T17:54:10.739Z,11.50
2023-03-13T17:56:41.134Z,21.90
2023-03-13T17:59:15.132Z,15.40
2023-03-13T18:01:43.340Z,24.90
2023-03-13T18:04:12.088Z,23.00
2023-03-13T18:06:45.803Z,26.30
2023-03-13T18:09:19.323Z,27.10
2023-03-13T18:11:48.027Z,33.90
2023-03-13T18:14:16.045Z,27.10
2023-03-13T18:16:50.605Z,26.20
2023-03-13T18:19:22.664Z,46.20
2023-03-13T18:21:53.907Z,39.10
2023-03-13T18:24:22.007Z,65.00
2023-03-13T18:26:50.561Z,44.40
2023-03-13T18:29:26.472Z,48.30
2023-03-13T18:32:00.413Z,40.60
2023-03-13T18:34:29.755Z,42.50
2023-03-13T18:37:03.530Z,30.50
2023-03-13T18:39:32.637Z,26.70
2023-03-13T18:42:02.001Z,27.20
2023-03-13T18:44:30.082Z,26.00
2023-03-13T18:46:58.512Z,24.60
2023-03-13T18:49:26.470Z,36.20
2023-03-13T18:51:54.420Z,37.20
2023-03-13T18:54:22.329Z,45.80
2023-03-13T18:56:50.284Z,46.60
2023-03-13T18:59:20.903Z,42.40
2023-03-13T19:01:49.880Z,41.60
2023-03-13T19:04:19.005Z,42.60
2023-03-13T19:06:48.258Z,36.70
2023-03-13T19:09:41.515Z,39.90
2023-03-13T19:12:07.448Z,47.90
2023-03-13T19:14:35.613Z,45.20
2023-03-13T19:17:06.989Z,55.00
2023-03-13T19:19:35.131Z,48.70
2023-03-13T19:22:03.414Z,38.70
2023-03-13T19:24:31.260Z,36.30
2023-03-13T19:26:59.753Z,39.30
2023-03-13T19:29:28.714Z,31.00
2023-03-13T19:31:59.156Z,34.40
2023-03-13T19:34:27.478Z,28.80
2023-03-13T19:36:55.549Z,33.70
2023-03-13T19:39:25.546Z,34.20
2023-03-13T19:41:54.106Z,23.80
2023-03-13T19:44:22.492Z,24.60
2023-03-13T19:46:51.200Z,26.80
2023-03-13T19:49:21.232Z,34.60
2023-03-13T19:51:49.453Z,32.80
2023-03-13T19:54:17.771Z,38.80
2023-03-13T19:56:48.378Z,39.30
2023-03-13T19:59:19.292Z,43.40
2023-03-13T20:01:47.780Z,40.50
2023-03-13T20:04:16.398Z,52.80
2023-03-13T20:06:45.513Z,47.30
2023-03-13T20:09:16.865Z,39.50
2023-03-13T20:11:44.902Z,39.10
2023-03-13T20:14:12.929Z,30.30
2023-03-13T20:16:41.013Z,29.60
2023-03-13T20:19:09.075Z,29.80
2023-03-13T20:21:41.161Z,27.40
2023-03-13T20:24:09.919Z,26.30
2023-03-13T20:26:38.411Z,27.10
2023-03-13T20:29:06.416Z,24.10
2023-03-13T20:31:34.420Z,21.50
2023-03-13T20:34:02.382Z,21.10
2023-03-13T20:36:30.256Z,22.20
2023-03-13T20:38:58.230Z,23.40
2023-03-13T20:41:31.069Z,24.10
2023-03-13T20:43:59.530Z,23.60
2023-03-13T20:46:28.354Z,21.10
2023-03-13T20:48:58.768Z,21.90
2023-03-13T20:53:56.998Z,20.10
2023-03-13T20:56:24.822Z,14.70
2023-03-13T20:58:53.098Z,18.20
2023-03-13T21:01:22.351Z,16.40
2023-03-13T21:03:50.639Z,17.20
2023-03-13T21:06:19.171Z,23.00
2023-03-13T21:08:47.800Z,21.50
2023-03-13T21:11:19.228Z,17.50
2023-03-13T21:13:48.104Z,15.30
2023-03-13T21:16:18.448Z,15.10
2023-03-13T21:18:46.884Z,16.60
2023-03-13T21:21:19.101Z,16.20
2023-03-13T21:23:47.226Z,19.40
2023-03-13T21:26:15.909Z,16.90
2023-03-13T21:28:44.237Z,17.10
2023-03-13T21:31:18.415Z,17.00
2023-03-13T21:33:47.139Z,12.90
2023-03-13T21:36:17.674Z,16.40
2023-03-13T21:38:45.921Z,13.60
2023-03-13T21:41:17.036Z,17.20
2023-03-13T21:43:45.664Z,13.50
2023-03-13T21:46:16.401Z,17.40
2023-03-13T21:51:13.993Z,12.50
2023-03-13T21:53:44.282Z,13.90
2023-03-13T21:56:15.951Z,13.10
2023-03-13T21:58:48.140Z,18.20
2023-03-13T22:01:16.244Z,15.30
2023-03-13T22:03:47.907Z,14.30
2023-03-13T22:06:21.033Z,13.20
2023-03-13T22:08:50.059Z,11.10
2023-03-13T22:11:18.679Z,11.00
2023-03-13T22:13:46.575Z,13.30
2023-03-13T22:16:14.678Z,11.00
2023-03-13T22:18:44.285Z,9.50
2023-03-13T22:21:15.279Z,8.60
2023-03-13T22:23:44.780Z,10.70
2023-03-13T22:26:15.374Z,9.70
2023-03-13T22:28:43.634Z,7.50
2023-03-13T22:31:14.746Z,8.90
2023-03-13T22:33:42.573Z,9.10
2023-03-13T22:36:11.044Z,6.70
2023-03-13T22:38:39.956Z,9.60
2023-03-13T22:41:11.590Z,8.20
2023-03-13T22:43:40.042Z,7.80
2023-03-13T22:46:08.501Z,13.60
2023-03-13T22:48:36.851Z,11.70
2023-03-13T22:51:08.778Z,14.30
2023-03-13T22:53:39.196Z,9.70
2023-03-13T22:56:10.009Z,12.30
2023-03-13T22:58:39.706Z,8.90
2023-03-13T23:01:10.540Z,7.70
2023-03-13T23:03:38.545Z,8.80
2023-03-13T23:06:16.230Z,17.50
2023-03-13T23:08:44.445Z,9.60
2023-03-13T23:11:12.598Z,14.30
2023-03-13T23:13:40.969Z,17.00
2023-03-13T23:16:11.476Z,12.40
2023-03-13T23:18:39.981Z,12.90
2023-03-13T23:21:11.764Z,17.60
2023-03-13T23:23:41.002Z,9.90
2023-03-13T23:26:12.641Z,11.30
2023-03-13T23:28:41.602Z,18.20
2023-03-13T23:31:12.078Z,13.30
2023-03-13T23:33:40.580Z,12.80
2023-03-13T23:36:15.119Z,13.30
2023-03-13T23:38:43.300Z,11.90
2023-03-13T23:41:13.930Z,14.80
2023-03-13T23:46:22.048Z,11.50
2023-03-13T23:48:54.756Z,12.20
2023-03-13T23:51:23.545Z,15.10
2023-03-13T23:53:52.093Z,10.60
2023-03-13T23:56:20.026Z,13.30
2023-03-13T23:58:48.053Z,13.90
